Time;durP1;ratioP1;P1;durP2;ratioP2;P2;SDS_P1;SDS_P2;PMS_P1;PMS_P2;Temp;Humidity;BMP_temperature;BMP_pressure;BME280_temperature;BME280_humidity;BME280_pressure;Samples;Min_cycle;Max_cycle;Signal;HPM_P1;HPM_P2
2022/08/05 00:01:48;;;;;;;9.82;2.10;;;19.90;99.90;;;;;;4977623;28;20056;-71
2022/08/05 00:04:14;;;;;;;5.53;1.10;;;19.90;99.90;;;;;;4974580;28;20030;-71
2022/08/05 00:06:41;;;;;;;3.47;1.10;;;19.90;99.90;;;;;;4973864;28;20117;-71
2022/08/05 00:09:06;;;;;;;7.35;1.17;;;19.90;99.90;;;;;;4973259;28;20050;-71
2022/08/05 00:11:32;;;;;;;7.13;1.20;;;19.80;99.90;;;;;;4974987;28;20039;-71
2022/08/05 00:13:57;;;;;;;6.30;0.95;;;19.80;99.90;;;;;;4971949;28;20042;-71
2022/08/05 00:16:23;;;;;;;6.65;0.98;;;19.80;99.90;;;;;;4976838;28;20380;-70
2022/08/05 00:18:49;;;;;;;6.30;1.08;;;19.80;99.90;;;;;;4972510;28;20078;-69
2022/08/05 00:21:16;;;;;;;2.60;1.02;;;19.70;99.90;;;;;;4976561;28;20112;-71
2022/08/05 00:23:43;;;;;;;9.05;1.35;;;19.70;99.90;;;;;;4973454;28;20633;-71
2022/08/05 00:26:10;;;;;;;1.90;0.80;;;19.70;99.90;;;;;;4979806;28;20030;-71
2022/08/05 00:28:36;;;;;;;3.15;1.10;;;19.70;99.90;;;;;;4979055;28;20037;-70
2022/08/05 00:31:03;;;;;;;4.30;1.08;;;19.70;99.90;;;;;;4976330;28;20046;-72
2022/08/05 00:33:29;;;;;;;5.25;1.02;;;19.70;99.90;;;;;;4977254;28;20111;-71
2022/08/05 00:35:54;;;;;;;4.32;0.90;;;19.60;99.90;;;;;;4980318;28;20042;-71
2022/08/05 00:38:20;;;;;;;1.95;0.60;;;19.60;99.90;;;;;;4977513;28;20881;-70
2022/08/05 00:40:48;;;;;;;2.53;0.60;;;19.60;99.90;;;;;;4979040;28;20522;-72
2022/08/05 00:43:14;;;;;;;6.38;0.70;;;19.60;99.90;;;;;;4976103;28;20039;-71
2022/08/05 00:45:40;;;;;;;3.63;0.68;;;19.60;99.90;;;;;;4978264;28;20035;-69
2022/08/05 00:48:07;;;;;;;4.13;0.98;;;19.60;99.90;;;;;;4976781;28;20446;-70
2022/08/05 00:50:32;;;;;;;3.50;1.00;;;19.60;99.90;;;;;;4978760;28;20121;-71
2022/08/05 00:52:58;;;;;;;2.17;1.00;;;19.60;99.90;;;;;;4987327;28;20103;-69
2022/08/05 00:55:24;;;;;;;4.93;1.10;;;19.60;99.90;;;;;;4990978;28;20040;-71
2022/08/05 00:57:50;;;;;;;4.70;0.95;;;19.60;99.90;;;;;;4986349;28;20769;-71
2022/08/05 01:00:15;;;;;;;3.65;1.08;;;19.60;99.90;;;;;;4981379;28;20518;-71
2022/08/05 01:02:41;;;;;;;8.95;1.08;;;19.60;99.90;;;;;;4987179;28;20109;-71
2022/08/05 01:05:07;;;;;;;2.63;0.82;;;19.60;99.90;;;;;;4977759;28;20121;-70
2022/08/05 01:07:32;;;;;;;5.40;0.77;;;19.70;99.90;;;;;;4976960;28;20054;-71
2022/08/05 01:09:58;;;;;;;6.63;0.93;;;19.60;99.90;;;;;;4986656;28;20030;-71
2022/08/05 01:12:24;;;;;;;1.92;0.75;;;19.70;99.90;;;;;;4977146;28;20634;-69
2022/08/05 01:15:07;;;;;;;1.95;0.70;;;19.60;99.90;;;;;;4976719;28;20039;-69
2022/08/05 01:17:44;;;;;;;4.40;1.13;;;19.60;99.90;;;;;;4978006;28;20526;-71
2022/08/05 01:20:33;;;;;;;3.97;0.82;;;19.60;99.90;;;;;;4979224;28;20049;-71
2022/08/05 01:23:04;;;;;;;6.13;0.90;;;19.50;99.90;;;;;;4979360;28;20030;-71
2022/08/05 01:25:39;;;;;;;5.25;0.90;;;19.50;99.90;;;;;;4982593;28;20030;-71
2022/08/05 01:28:30;;;;;;;6.13;0.73;;;19.50;99.90;;;;;;4985228;28;20035;-71
2022/08/05 01:31:06;;;;;;;6.20;0.90;;;19.50;99.90;;;;;;4979774;28;20042;-71
2022/08/05 01:33:45;;;;;;;4.18;1.00;;;19.50;99.90;;;;;;4977097;28;20047;-71
2022/08/05 01:36:15;;;;;;;1.07;0.53;;;19.40;99.90;;;;;;4975928;28;20490;-71
2022/08/05 01:38:43;;;;;;;6.85;1.08;;;19.40;99.90;;;;;;4976238;28;20647;-70
2022/08/05 01:41:11;;;;;;;4.15;0.65;;;19.40;99.90;;;;;;4978502;28;20666;-69
2022/08/05 01:43:37;;;;;;;3.13;1.10;;;19.40;99.90;;;;;;4975611;28;20141;-70
2022/08/05 01:46:03;;;;;;;2.92;1.10;;;19.40;99.90;;;;;;4977786;28;20138;-71
2022/08/05 01:48:33;;;;;;;3.83;1.00;;;19.40;99.90;;;;;;4977648;28;20037;-69
2022/08/05 01:50:59;;;;;;;9.02;1.38;;;19.30;99.90;;;;;;4977225;28;20141;-68
2022/08/05 01:53:26;;;;;;;2.35;1.20;;;19.30;99.90;;;;;;4977403;28;20038;-69
2022/08/05 01:55:57;;;;;;;5.40;1.00;;;19.40;99.90;;;;;;4976826;28;20046;-71
2022/08/05 01:58:25;;;;;;;3.47;0.75;;;19.40;99.90;;;;;;4978623;28;20121;-69
2022/08/05 02:00:55;;;;;;;3.10;0.65;;;19.40;99.90;;;;;;4982082;28;20066;-69
2022/08/05 02:03:35;;;;;;;2.10;0.60;;;19.30;99.90;;;;;;4977742;28;20038;-72
2022/08/05 02:06:04;;;;;;;4.82;0.60;;;19.30;99.90;;;;;;4974815;28;20050;-69
2022/08/05 02:08:33;;;;;;;4.60;0.82;;;19.30;99.90;;;;;;4976655;28;20402;-69
2022/08/05 02:11:07;;;;;;;3.10;0.85;;;19.20;99.90;;;;;;4976983;28;20039;-69
2022/08/05 02:14:04;;;;;;;2.75;0.60;;;19.30;99.90;;;;;;4975681;28;20038;-70
2022/08/05 02:16:40;;;;;;;2.33;0.60;;;19.30;99.90;;;;;;4976481;28;20069;-69
2022/08/05 02:19:34;;;;;;;5.45;1.35;;;19.30;99.90;;;;;;5013560;28;20043;-70
2022/08/05 02:22:14;;;;;;;3.97;1.45;;;19.20;99.90;;;;;;4977500;28;20215;-70
2022/08/05 02:24:45;;;;;;;3.95;0.60;;;19.20;99.90;;;;;;4984337;28;20509;-69
2022/08/05 02:27:12;;;;;;;6.07;1.00;;;19.10;99.90;;;;;;4984773;28;20030;-70
2022/08/05 02:29:42;;;;;;;2.95;0.80;;;19.20;99.90;;;;;;4983168;28;20031;-67
2022/08/05 02:32:10;;;;;;;2.47;0.70;;;19.20;99.90;;;;;;4980381;28;20095;-69
2022/08/05 02:34:36;;;;;;;3.15;0.60;;;19.20;99.90;;;;;;4975849;28;20034;-70
2022/08/05 02:37:06;;;;;;;5.93;0.77;;;19.20;99.90;;;;;;4976904;28;20073;-70
2022/08/05 02:39:35;;;;;;;2.03;0.55;;;19.10;99.90;;;;;;4975003;28;20034;-71
2022/08/05 02:42:02;;;;;;;3.20;0.47;;;19.10;99.90;;;;;;4977745;28;20602;-70
2022/08/05 02:44:30;;;;;;;5.35;0.90;;;19.10;99.90;;;;;;5007344;28;20027;-70
2022/08/05 02:46:57;;;;;;;2.72;0.73;;;19.10;99.90;;;;;;4976738;28;20043;-69
2022/08/05 02:49:24;;;;;;;1.15;0.50;;;19.00;99.90;;;;;;4975839;28;20030;-67
2022/08/05 02:51:51;;;;;;;4.22;0.68;;;19.00;99.90;;;;;;4975735;28;20039;-69
2022/08/05 02:54:19;;;;;;;2.88;0.80;;;19.00;99.90;;;;;;4976668;28;20060;-70
2022/08/05 02:56:45;;;;;;;3.60;1.25;;;19.00;99.90;;;;;;4980895;28;20118;-71
2022/08/05 02:59:12;;;;;;;6.78;1.08;;;19.00;99.90;;;;;;4984487;28;20042;-70
2022/08/05 03:01:40;;;;;;;1.92;0.60;;;19.00;99.90;;;;;;4983006;28;20029;-68
2022/08/05 03:04:09;;;;;;;7.40;0.70;;;18.90;99.90;;;;;;4981762;28;20030;-69
2022/08/05 03:06:36;;;;;;;9.13;2.00;;;18.90;99.90;;;;;;4979386;28;20054;-70
2022/08/05 03:09:03;;;;;;;5.45;0.80;;;19.00;99.90;;;;;;4978857;28;20043;-70
2022/08/05 03:11:28;;;;;;;2.58;0.82;;;18.90;99.90;;;;;;4977882;28;20565;-69
2022/08/05 03:13:54;;;;;;;2.10;0.47;;;18.90;99.90;;;;;;4975676;28;20112;-69
2022/08/05 03:16:20;;;;;;;5.97;1.13;;;18.90;99.90;;;;;;4975272;28;20498;-70
2022/08/05 03:18:46;;;;;;;3.45;1.13;;;18.90;99.90;;;;;;4983363;28;20038;-69
2022/08/05 03:21:12;;;;;;;3.35;0.77;;;18.90;99.90;;;;;;4981647;28;20398;-69
2022/08/05 03:23:41;;;;;;;2.95;0.80;;;19.00;99.90;;;;;;4976381;28;20101;-69
2022/08/05 03:26:07;;;;;;;1.05;0.50;;;18.90;99.90;;;;;;4983360;28;20137;-71
2022/08/05 03:28:33;;;;;;;6.40;0.60;;;18.90;99.90;;;;;;4976711;28;20123;-70
2022/08/05 03:31:00;;;;;;;1.92;0.50;;;18.90;99.90;;;;;;4976588;28;20463;-69
2022/08/05 03:33:30;;;;;;;2.83;0.65;;;18.90;99.90;;;;;;4973997;28;20769;-67
2022/08/05 03:35:57;;;;;;;4.22;0.50;;;18.90;99.90;;;;;;4975938;28;20484;-67
2022/08/05 03:38:24;;;;;;;1.33;0.50;;;18.90;99.90;;;;;;4976286;28;20057;-70
2022/08/05 03:40:52;;;;;;;3.53;0.52;;;18.90;99.90;;;;;;4974564;28;20043;-70
2022/08/05 03:43:18;;;;;;;4.07;0.60;;;18.90;99.90;;;;;;4976485;28;20113;-71
2022/08/05 03:45:43;;;;;;;1.13;0.50;;;18.90;99.90;;;;;;4972620;28;20579;-70
2022/08/05 03:48:09;;;;;;;4.15;1.08;;;18.90;99.90;;;;;;4977681;28;20039;-68
2022/08/05 03:51:01;;;;;;;3.15;0.68;;;18.80;99.90;;;;;;4973716;28;20066;-69
2022/08/05 03:53:35;;;;;;;1.05;0.40;;;18.90;99.90;;;;;;4978474;28;20117;-69
2022/08/05 03:56:28;;;;;;;2.60;0.50;;;18.80;99.90;;;;;;4977196;28;20057;-70
2022/08/05 03:59:08;;;;;;;2.97;0.60;;;18.80;99.90;;;;;;4976252;28;20042;-70
2022/08/05 04:01:38;;;;;;;3.40;0.98;;;18.80;99.90;;;;;;4982742;28;20039;-70
2022/08/05 04:04:04;;;;;;;1.65;0.60;;;18.90;99.90;;;;;;4975206;28;20439;-70
2022/08/05 04:06:32;;;;;;;1.77;0.70;;;18.80;99.90;;;;;;4982917;28;20038;-69
2022/08/05 04:08:59;;;;;;;6.03;1.52;;;18.80;99.90;;;;;;4980846;28;20031;-69
2022/08/05 04:11:25;;;;;;;2.78;0.40;;;18.80;99.90;;;;;;4979253;28;20038;-67
2022/08/05 04:13:51;;;;;;;2.50;0.80;;;18.70;99.90;;;;;;4977689;28;20458;-70
2022/08/05 04:16:16;;;;;;;2.33;0.93;;;18.70;99.90;;;;;;4979889;28;20031;-69
2022/08/05 04:18:44;;;;;;;1.92;0.68;;;18.70;99.90;;;;;;4980883;28;20031;-68
2022/08/05 04:21:10;;;;;;;6.07;1.38;;;18.70;99.90;;;;;;4990156;28;20434;-69
2022/08/05 04:23:35;;;;;;;1.67;0.40;;;18.60;99.90;;;;;;4990672;28;20031;-70
2022/08/05 04:26:02;;;;;;;1.65;0.45;;;18.60;99.90;;;;;;4996859;28;20030;-70
2022/08/05 04:28:27;;;;;;;4.30;0.70;;;18.60;99.90;;;;;;4981950;28;20030;-69
2022/08/05 04:30:53;;;;;;;2.15;0.35;;;18.60;99.90;;;;;;4989584;28;20097;-70
2022/08/05 04:33:19;;;;;;;4.03;0.50;;;18.50;99.90;;;;;;4990995;28;20053;-69
2022/08/05 04:35:44;;;;;;;1.88;0.47;;;18.50;99.90;;;;;;4989021;28;20377;-70
2022/08/05 04:38:10;;;;;;;1.92;0.60;;;18.50;99.90;;;;;;4981876;28;20073;-68
2022/08/05 04:40:37;;;;;;;2.13;0.55;;;18.50;99.90;;;;;;4978793;28;20050;-70
2022/08/05 04:43:03;;;;;;;2.30;0.70;;;18.40;99.90;;;;;;4980903;28;20125;-70
2022/08/05 04:45:29;;;;;;;1.88;0.50;;;18.40;99.90;;;;;;4977652;28;20154;-70
2022/08/05 04:48:07;;;;;;;1.60;0.30;;;18.30;99.90;;;;;;4984392;28;20038;-69
2022/08/05 04:50:41;;;;;;;2.08;0.60;;;18.30;99.90;;;;;;4981491;28;20044;-70
2022/08/05 04:53:08;;;;;;;3.10;0.50;;;18.30;99.90;;;;;;4983584;28;20042;-69
2022/08/05 04:55:37;;;;;;;1.52;0.40;;;18.20;99.90;;;;;;4981789;28;20086;-70
2022/08/05 04:58:04;;;;;;;5.78;0.90;;;18.20;99.90;;;;;;4981339;28;20030;-68
2022/08/05 05:00:32;;;;;;;1.67;0.40;;;18.20;99.90;;;;;;4980790;28;20054;-69
2022/08/05 05:02:58;;;;;;;3.50;0.60;;;18.20;99.90;;;;;;4980177;28;20038;-69
2022/08/05 05:05:23;;;;;;;2.05;0.60;;;18.20;99.90;;;;;;4977712;28;20037;-70
2022/08/05 05:07:49;;;;;;;2.22;0.40;;;18.10;99.90;;;;;;4978144;28;20031;-71
2022/08/05 05:10:14;;;;;;;3.15;0.60;;;18.10;99.90;;;;;;4979509;28;20026;-69
2022/08/05 05:12:40;;;;;;;4.60;0.80;;;18.10;99.90;;;;;;4981069;28;20042;-69
2022/08/05 05:15:06;;;;;;;2.25;0.57;;;18.10;99.90;;;;;;5012735;28;20035;-70
2022/08/05 05:17:40;;;;;;;4.20;0.50;;;18.10;99.90;;;;;;4980005;28;20036;-69
2022/08/05 05:20:07;;;;;;;3.25;0.50;;;18.00;99.90;;;;;;4983528;28;20026;-70
2022/08/05 05:22:33;;;;;;;3.85;0.60;;;18.00;99.90;;;;;;4979744;28;20029;-70
2022/08/05 05:24:59;;;;;;;3.20;0.77;;;18.00;99.90;;;;;;4984027;28;20061;-70
2022/08/05 05:27:29;;;;;;;3.10;0.30;;;18.00;99.90;;;;;;4983978;28;20046;-70
2022/08/05 05:29:55;;;;;;;3.65;0.55;;;18.00;99.90;;;;;;4980342;28;20046;-70
2022/08/05 05:32:20;;;;;;;1.10;0.70;;;18.00;99.90;;;;;;4977920;28;20396;-69
2022/08/05 05:34:46;;;;;;;2.20;0.30;;;18.10;99.90;;;;;;4985969;28;20026;-70
2022/08/05 05:37:13;;;;;;;1.98;0.50;;;18.10;99.90;;;;;;4985215;28;20038;-70
2022/08/05 05:39:39;;;;;;;2.92;0.40;;;18.10;99.90;;;;;;4987243;28;20035;-70
2022/08/05 05:42:05;;;;;;;1.38;0.30;;;18.10;99.90;;;;;;4984900;28;20030;-70
2022/08/05 05:44:31;;;;;;;0.82;0.20;;;18.20;99.90;;;;;;4984579;28;20380;-70
2022/08/05 05:46:56;;;;;;;2.08;0.32;;;18.20;99.90;;;;;;4986377;28;20113;-67
2022/08/05 05:49:22;;;;;;;9.43;0.98;;;18.30;99.90;;;;;;4985330;28;20037;-69
2022/08/05 05:51:48;;;;;;;2.08;0.32;;;18.30;99.90;;;;;;4986514;28;20062;-69
2022/08/05 05:54:13;;;;;;;0.93;0.22;;;18.40;99.90;;;;;;4985414;28;20104;-69
2022/08/05 05:56:39;;;;;;;1.98;0.40;;;18.40;99.90;;;;;;4984876;28;20038;-70
2022/08/05 05:59:05;;;;;;;3.13;0.40;;;18.50;99.90;;;;;;4979852;28;20537;-69
2022/08/05 06:01:35;;;;;;;1.50;0.30;;;18.50;99.90;;;;;;4987681;28;20554;-70
2022/08/05 06:04:00;;;;;;;2.65;0.25;;;18.60;99.90;;;;;;4978928;28;20034;-69
2022/08/05 06:06:26;;;;;;;0.90;0.20;;;18.70;99.90;;;;;;4982231;28;20035;-70
2022/08/05 06:08:52;;;;;;;2.08;0.30;;;18.70;99.90;;;;;;4981774;28;20041;-70
2022/08/05 06:11:17;;;;;;;2.17;0.30;;;18.80;99.90;;;;;;4979684;28;20034;-71
2022/08/05 06:13:43;;;;;;;0.60;0.30;;;18.90;99.90;;;;;;4980432;28;20374;-71
2022/08/05 06:16:08;;;;;;;1.98;0.20;;;19.00;99.90;;;;;;4978672;28;20061;-70
2022/08/05 06:18:36;;;;;;;1.75;0.20;;;19.10;99.90;;;;;;4976406;28;20507;-69
2022/08/05 06:21:02;;;;;;;1.63;0.13;;;19.20;99.90;;;;;;4979408;28;20030;-69
2022/08/05 06:23:27;;;;;;;2.65;0.30;;;19.30;99.90;;;;;;4974628;28;20038;-69
2022/08/05 06:25:53;;;;;;;0.88;0.17;;;19.50;99.90;;;;;;4982890;28;20495;-69
2022/08/05 06:28:18;;;;;;;0.93;0.30;;;19.60;99.90;;;;;;4976683;28;20042;-71
2022/08/05 06:30:44;;;;;;;2.30;0.20;;;19.70;99.90;;;;;;4976847;28;20042;-69
2022/08/05 06:33:10;;;;;;;1.50;0.40;;;19.90;99.90;;;;;;4976741;28;20121;-71
2022/08/05 06:35:35;;;;;;;1.23;0.20;;;20.10;99.90;;;;;;4986294;28;20035;-72
2022/08/05 06:38:01;;;;;;;0.82;0.10;;;20.20;99.90;;;;;;4977556;28;20430;-69
2022/08/05 06:40:26;;;;;;;1.45;0.50;;;20.50;99.90;;;;;;4974741;28;20043;-71
2022/08/05 06:42:52;;;;;;;3.35;0.43;;;20.80;99.90;;;;;;4975812;28;20034;-72
2022/08/05 06:45:18;;;;;;;0.88;0.10;;;21.40;99.90;;;;;;4976534;28;20522;-72
2022/08/05 06:47:43;;;;;;;0.30;0.10;;;22.00;99.90;;;;;;4975064;28;20105;-69
2022/08/05 06:50:09;;;;;;;2.97;0.38;;;22.70;99.90;;;;;;4975524;28;20415;-73
2022/08/05 06:52:34;;;;;;;1.70;0.57;;;23.40;98.80;;;;;;4974898;28;20034;-71
2022/08/05 06:55:00;;;;;;;1.73;0.35;;;24.00;97.90;;;;;;4988217;28;20045;-71
2022/08/05 06:57:26;;;;;;;1.60;0.10;;;24.60;96.20;;;;;;4986803;28;20405;-71
2022/08/05 06:59:51;;;;;;;1.75;0.45;;;24.70;95.40;;;;;;4979815;28;20547;-72
2022/08/05 07:02:17;;;;;;;0.38;0.15;;;24.70;94.80;;;;;;4982025;28;20054;-72
2022/08/05 07:04:42;;;;;;;1.83;0.28;;;24.70;95.00;;;;;;4973303;28;20089;-71
2022/08/05 07:07:08;;;;;;;0.90;0.15;;;24.90;94.50;;;;;;4975025;28;20125;-69
2022/08/05 07:09:34;;;;;;;1.83;0.57;;;25.70;93.40;;;;;;4977718;28;20027;-68
2022/08/05 07:11:59;;;;;;;0.63;0.20;;;26.50;92.30;;;;;;4979899;28;20434;-69
2022/08/05 07:17:09;;;;;;;2.08;0.20;;;27.50;90.30;;;;;;4976296;28;20398;-69
2022/08/05 07:19:35;;;;;;;2.42;0.35;;;28.10;88.50;;;;;;4975456;28;20031;-68
2022/08/05 07:22:00;;;;;;;1.33;0.17;;;28.60;88.60;;;;;;4977409;28;20427;-69
2022/08/05 07:24:26;;;;;;;0.60;0.20;;;29.00;86.40;;;;;;4974162;28;20444;-70
2022/08/05 07:26:52;;;;;;;0.55;0.17;;;29.20;85.20;;;;;;4983892;28;20403;-69
2022/08/05 07:29:18;;;;;;;8.20;0.30;;;29.40;83.20;;;;;;4985883;28;20677;-70
2022/08/05 07:31:43;;;;;;;1.38;0.40;;;29.30;80.00;;;;;;4974057;28;20042;-69
2022/08/05 07:34:09;;;;;;;1.48;0.30;;;29.00;80.70;;;;;;4982087;28;20034;-69
2022/08/05 07:36:34;;;;;;;0.63;0.20;;;28.90;82.20;;;;;;4983847;28;20390;-71
2022/08/05 07:39:06;;;;;;;0.63;0.28;;;28.70;82.40;;;;;;4977851;28;20050;-69
2022/08/05 07:41:33;;;;;;;1.40;0.25;;;28.30;83.10;;;;;;4977137;28;20117;-69
2022/08/05 07:43:59;;;;;;;0.85;0.30;;;28.20;83.10;;;;;;4980083;28;20478;-69
2022/08/05 07:46:27;;;;;;;1.42;0.30;;;27.80;83.90;;;;;;4976587;28;20039;-71
2022/08/05 07:48:54;;;;;;;1.38;0.40;;;27.30;84.70;;;;;;4977858;28;20054;-68
2022/08/05 07:51:19;;;;;;;0.10;0.00;;;26.90;83.60;;;;;;4975703;28;20547;-69
2022/08/05 07:53:45;;;;;;;1.58;0.30;;;26.20;84.40;;;;;;4973790;28;20053;-70
2022/08/05 07:56:11;;;;;;;2.67;0.10;;;25.80;85.90;;;;;;4975092;28;20067;-68
2022/08/05 07:58:36;;;;;;;0.65;0.30;;;25.40;85.20;;;;;;4975206;28;20042;-69
2022/08/05 08:01:02;;;;;;;1.83;0.10;;;25.00;87.00;;;;;;4975121;28;20049;-69
2022/08/05 08:03:27;;;;;;;2.00;0.20;;;24.80;88.40;;;;;;4981106;28;20108;-69
2022/08/05 08:05:53;;;;;;;2.17;0.10;;;24.60;86.80;;;;;;4976495;28;20046;-67
2022/08/05 08:08:19;;;;;;;0.50;0.20;;;24.40;87.50;;;;;;4976380;28;20066;-68
2022/08/05 08:10:45;;;;;;;1.25;0.10;;;24.20;88.60;;;;;;4972876;28;20049;-67
2022/08/05 08:13:10;;;;;;;0.35;0.20;;;24.00;89.20;;;;;;4977233;28;20026;-67
2022/08/05 08:15:36;;;;;;;2.65;0.10;;;23.90;89.30;;;;;;4974379;28;20038;-68
2022/08/05 08:18:02;;;;;;;3.25;0.20;;;23.90;88.00;;;;;;4973914;28;20129;-68
2022/08/05 08:20:27;;;;;;;3.20;0.28;;;24.00;88.00;;;;;;4976413;28;20563;-68
2022/08/05 08:22:58;;;;;;;0.65;0.08;;;24.20;87.40;;;;;;4975385;28;20148;-66
2022/08/05 08:25:25;;;;;;;0.47;0.20;;;24.20;87.40;;;;;;4982664;28;20038;-68
2022/08/05 08:27:51;;;;;;;1.50;0.32;;;24.10;87.00;;;;;;4978211;28;20035;-66
2022/08/05 08:30:17;;;;;;;1.85;0.30;;;24.00;88.30;;;;;;4981410;28;20031;-67
2022/08/05 08:32:42;;;;;;;0.50;0.17;;;23.90;89.60;;;;;;4979413;28;20117;-68
2022/08/05 08:35:09;;;;;;;1.35;0.28;;;23.80;89.10;;;;;;4981967;28;20026;-68
2022/08/05 08:37:34;;;;;;;0.80;0.10;;;23.80;89.90;;;;;;4980577;28;20027;-68
2022/08/05 08:40:00;;;;;;;2.05;0.20;;;23.80;89.40;;;;;;4982771;28;20026;-66
2022/08/05 08:42:27;;;;;;;1.95;0.10;;;23.60;90.00;;;;;;4979438;28;20041;-68
2022/08/05 08:44:54;;;;;;;0.68;0.20;;;23.60;90.80;;;;;;4980756;28;20376;-67
2022/08/05 08:47:24;;;;;;;1.00;0.15;;;23.50;91.20;;;;;;4976876;28;20050;-68
2022/08/05 08:49:52;;;;;;;2.30;0.23;;;23.50;91.50;;;;;;4981176;28;20579;-67
2022/08/05 08:52:31;;;;;;;0.68;0.28;;;23.40;91.90;;;;;;4984263;28;20030;-65
2022/08/05 08:54:57;;;;;;;1.60;0.30;;;23.40;91.70;;;;;;4984405;28;20053;-67
2022/08/05 08:57:23;;;;;;;0.45;0.10;;;23.60;91.80;;;;;;4987500;28;20026;-67
2022/08/05 08:59:49;;;;;;;1.27;0.10;;;23.60;91.00;;;;;;4986460;28;20027;-67
2022/08/05 09:02:18;;;;;;;0.95;0.10;;;23.80;91.30;;;;;;4988753;28;20446;-66
2022/08/05 09:04:45;;;;;;;2.03;0.10;;;24.00;91.40;;;;;;4985475;28;20513;-67
2022/08/05 09:07:12;;;;;;;3.63;0.45;;;24.00;91.00;;;;;;4985156;28;20042;-67
2022/08/05 09:09:38;;;;;;;0.55;0.10;;;24.10;90.70;;;;;;4984091;28;20042;-67
2022/08/05 09:12:06;;;;;;;1.73;0.10;;;24.10;90.30;;;;;;4986471;28;20104;-67
2022/08/05 09:14:33;;;;;;;2.05;0.20;;;24.00;90.60;;;;;;5017000;28;20410;-68
2022/08/05 09:17:00;;;;;;;1.65;0.17;;;23.90;89.90;;;;;;4986254;28;20444;-67
2022/08/05 09:19:25;;;;;;;1.00;0.20;;;23.90;87.80;;;;;;4981153;28;20038;-69
2022/08/05 09:21:51;;;;;;;1.13;0.32;;;23.80;85.10;;;;;;4986276;28;20069;-68
2022/08/05 09:24:16;;;;;;;1.00;0.30;;;23.70;86.10;;;;;;4982267;28;20479;-66
2022/08/05 09:26:49;;;;;;;7.03;0.65;;;23.70;87.20;;;;;;4986652;28;20038;-67
2022/08/05 09:29:15;;;;;;;0.75;0.30;;;23.50;89.00;;;;;;4974847;28;20038;-67
2022/08/05 09:31:42;;;;;;;1.35;0.47;;;23.10;90.20;;;;;;4975899;28;20101;-65
2022/08/05 09:34:09;;;;;;;7.57;0.95;;;22.90;91.10;;;;;;4974038;28;20047;-67
2022/08/05 09:36:43;;;;;;;1.00;0.17;;;22.70;91.90;;;;;;4982342;28;20030;-67
2022/08/05 09:39:11;;;;;;;1.67;0.20;;;22.50;91.80;;;;;;4976970;28;20439;-68
2022/08/05 09:42:02;;;;;;;3.58;0.73;;;22.30;92.10;;;;;;4978277;28;20376;-67
2022/08/05 09:44:38;;;;;;;0.60;0.10;;;22.30;92.30;;;;;;4977289;28;20031;-67
2022/08/05 09:47:24;;;;;;;1.88;0.10;;;22.10;92.30;;;;;;4975665;28;20518;-67
2022/08/05 09:49:51;;;;;;;1.42;0.40;;;22.10;92.40;;;;;;4982175;28;20100;-67
2022/08/05 09:52:23;;;;;;;1.95;0.17;;;22.00;92.50;;;;;;4979290;28;20041;-66
2022/08/05 09:55:01;;;;;;;3.70;0.70;;;22.00;92.60;;;;;;4978746;28;20066;-67
2022/08/05 09:57:32;;;;;;;1.55;0.28;;;22.00;92.10;;;;;;4976251;28;20109;-67
2022/08/05 10:00:15;;;;;;;0.68;0.00;;;22.00;92.30;;;;;;4977866;28;20034;-67
2022/08/05 10:02:44;;;;;;;4.95;0.57;;;22.00;91.80;;;;;;4981526;28;20037;-66
2022/08/05 10:05:13;;;;;;;0.43;0.08;;;22.00;91.50;;;;;;4979187;28;20516;-68
2022/08/05 10:07:53;;;;;;;1.83;0.45;;;22.10;91.30;;;;;;4977768;28;20042;-69
2022/08/05 10:10:22;;;;;;;;;;;22.20;90.90;;;;;;4979535;28;20042;-68
2022/08/05 10:12:52;;;;;;;0.40;0.20;;;22.20;90.70;;;;;;4974380;28;19929;-68
2022/08/05 10:15:21;;;;;;;1.38;0.10;;;22.20;90.60;;;;;;4979248;28;20043;-68
2022/08/05 10:18:21;;;;;;;2.53;0.30;;;22.30;90.80;;;;;;4981840;28;20030;-68
2022/08/05 10:20:55;;;;;;;0.30;0.00;;;22.40;90.20;;;;;;4974007;28;20133;-69
2022/08/05 10:23:27;;;;;;;0.38;0.00;;;22.40;88.60;;;;;;4977447;28;20038;-69
2022/08/05 10:25:58;;;;;;;0.52;0.20;;;22.40;88.30;;;;;;4980225;28;20045;-68
2022/08/05 10:28:23;;;;;;;5.05;0.20;;;22.30;86.70;;;;;;4976399;28;20045;-69
2022/08/05 10:30:51;;;;;;;0.93;0.30;;;22.30;85.00;;;;;;4976269;28;20050;-72
2022/08/05 10:33:17;;;;;;;0.55;0.08;;;22.30;85.00;;;;;;4974357;28;20112;-72
2022/08/05 10:35:43;;;;;;;0.55;0.10;;;22.30;85.70;;;;;;4978281;28;20494;-69
2022/08/05 10:38:09;;;;;;;7.22;0.30;;;22.40;83.20;;;;;;4975546;28;20038;-68
2022/08/05 10:40:57;;;;;;;0.50;0.05;;;22.50;81.90;;;;;;4977482;28;20034;-69
2022/08/05 10:43:35;;;;;;;0.15;0.05;;;22.50;81.10;;;;;;4980312;28;20038;-69
2022/08/05 10:46:04;;;;;;;1.80;0.10;;;22.50;79.40;;;;;;4980762;28;20023;-69
2022/08/05 10:48:32;;;;;;;0.90;0.20;;;22.50;78.80;;;;;;4978246;28;20120;-68
2022/08/05 10:51:01;;;;;;;1.10;0.20;;;22.50;81.00;;;;;;5008025;28;20042;-67
2022/08/05 10:53:38;;;;;;;0.93;0.00;;;22.60;81.70;;;;;;4973483;28;20042;-69
2022/08/05 10:56:15;;;;;;;0.50;0.20;;;22.70;81.90;;;;;;4975593;28;20035;-70
2022/08/05 10:58:57;;;;;;;1.02;0.20;;;22.80;83.90;;;;;;4978398;28;20062;-69
2022/08/05 11:01:33;;;;;;;2.53;0.47;;;22.90;85.60;;;;;;4971600;28;20034;-69
2022/08/05 11:04:05;;;;;;;1.17;0.20;;;23.00;85.50;;;;;;4976841;28;20038;-70
2022/08/05 11:06:32;;;;;;;1.80;0.30;;;23.00;86.40;;;;;;5006776;28;20104;-68
2022/08/05 11:09:10;;;;;;;1.75;0.40;;;23.00;86.70;;;;;;4975313;28;20547;-67
2022/08/05 11:11:37;;;;;;;1.65;0.30;;;23.00;86.00;;;;;;4974924;28;20398;-68
2022/08/05 11:14:03;;;;;;;2.35;0.20;;;22.90;87.00;;;;;;4974253;28;20097;-67
2022/08/05 11:16:30;;;;;;;1.85;0.20;;;22.90;85.80;;;;;;4975481;28;20434;-66
2022/08/05 11:19:25;;;;;;;0.50;0.10;;;23.10;86.50;;;;;;4975817;28;20034;-71
2022/08/05 11:21:54;;;;;;;0.52;0.10;;;23.20;86.70;;;;;;4969564;28;20034;-68
2022/08/05 11:24:20;;;;;;;1.30;0.20;;;23.20;85.90;;;;;;4976876;28;20506;-70
2022/08/05 11:26:47;;;;;;;1.10;0.38;;;23.20;86.70;;;;;;4979763;28;20042;-69
2022/08/05 11:29:36;;;;;;;2.08;0.10;;;23.10;86.80;;;;;;4973060;28;20038;-70
2022/08/05 11:32:33;;;;;;;2.28;0.15;;;22.90;86.80;;;;;;4976470;28;20042;-70
2022/08/05 11:34:59;;;;;;;0.30;0.00;;;22.80;87.30;;;;;;4977663;28;20038;-68
2022/08/05 11:38:03;;;;;;;0.95;0.10;;;22.80;87.10;;;;;;4976008;28;20114;-70
2022/08/05 11:40:57;;;;;;;2.25;0.20;;;22.80;86.20;;;;;;4973019;28;20030;-68
2022/08/05 11:43:23;;;;;;;0.20;0.00;;;22.80;86.70;;;;;;4970382;28;20030;-70
2022/08/05 11:45:49;;;;;;;0.50;0.00;;;22.70;87.50;;;;;;4959804;28;20027;-68
2022/08/05 11:48:14;;;;;;;0.32;0.10;;;22.70;87.30;;;;;;4951646;28;20097;-69
2022/08/05 11:50:41;;;;;;;0.40;0.00;;;22.70;87.20;;;;;;4968929;28;20432;-69
2022/08/05 11:53:07;;;;;;;1.08;0.32;;;22.50;87.90;;;;;;4972741;28;20034;-70
2022/08/05 11:55:33;;;;;;;1.48;0.25;;;22.30;88.50;;;;;;4972920;28;20495;-69
2022/08/05 11:57:58;;;;;;;0.98;0.20;;;22.30;89.30;;;;;;4974515;28;20117;-69
2022/08/05 12:00:26;;;;;;;0.10;0.10;;;22.20;89.40;;;;;;4974816;28;20039;-69
2022/08/05 12:02:51;;;;;;;0.90;0.00;;;22.20;90.00;;;;;;5009325;28;20108;-69
2022/08/05 12:05:27;;;;;;;2.35;0.10;;;22.20;90.60;;;;;;4974898;28;20446;-70
2022/08/05 12:07:56;;;;;;;1.45;0.10;;;22.40;90.40;;;;;;4974282;28;20137;-70
2022/08/05 12:10:25;;;;;;;1.48;0.15;;;22.60;90.70;;;;;;4973769;28;20498;-70
2022/08/05 12:12:51;;;;;;;1.20;0.10;;;22.70;90.10;;;;;;4974435;28;20035;-71
2022/08/05 12:15:20;;;;;;;1.65;0.28;;;22.70;89.40;;;;;;4973719;28;20038;-69
2022/08/05 12:17:46;;;;;;;0.73;0.25;;;22.90;89.40;;;;;;4975847;28;20082;-71
2022/08/05 12:20:12;;;;;;;0.70;0.15;;;23.00;89.70;;;;;;4973001;28;20643;-70
2022/08/05 12:22:37;;;;;;;0.35;0.00;;;23.20;90.00;;;;;;4975329;28;20034;-70
2022/08/05 12:25:04;;;;;;;1.73;0.20;;;23.30;88.00;;;;;;4977893;28;20553;-69
2022/08/05 12:27:31;;;;;;;1.23;0.00;;;23.40;88.00;;;;;;4994977;28;20035;-70
2022/08/05 12:30:19;;;;;;;0.10;0.00;;;23.20;87.60;;;;;;4977817;28;20023;-71
2022/08/05 12:32:49;;;;;;;0.10;0.00;;;23.20;86.50;;;;;;4977217;28;20072;-69
2022/08/05 12:35:15;;;;;;;;;;;23.30;86.10;;;;;;4977638;28;20027;-70
2022/08/05 12:37:42;;;;;;;0.30;0.00;;;23.20;87.30;;;;;;4980906;28;19918;-69
2022/08/05 12:40:09;;;;;;;1.73;0.20;;;23.10;87.80;;;;;;4976185;28;20031;-68
2022/08/05 12:42:35;;;;;;;0.93;0.10;;;23.00;88.90;;;;;;4980094;28;20061;-70
2022/08/05 12:45:10;;;;;;;1.65;0.20;;;23.00;89.40;;;;;;4977592;28;20066;-71
2022/08/05 12:47:37;;;;;;;0.30;0.00;;;22.90;89.10;;;;;;4981736;28;20039;-68
2022/08/05 12:50:13;;;;;;;2.65;0.50;;;22.90;89.10;;;;;;4977627;28;20411;-70
2022/08/05 12:52:39;;;;;;;1.15;0.40;;;23.00;89.20;;;;;;4980613;28;20026;-69
2022/08/05 12:55:20;;;;;;;1.35;0.10;;;22.90;87.80;;;;;;4988355;28;20449;-71
2022/08/05 12:57:46;;;;;;;1.05;0.40;;;22.90;87.90;;;;;;4984411;28;20045;-69
2022/08/05 13:00:23;;;;;;;0.45;0.15;;;22.90;87.50;;;;;;4988165;28;20022;-71